sensor_id;sensor_type;location;lat;lon;timestamp;P1;durP1;ratioP1;P2;durP2;ratioP2
17658;SDS011;8948;51.534;8.262;2023-02-28T00:02:55;8.57;;;2.87;;
17658;SDS011;8948;51.534;8.262;2023-02-28T00:07:55;4.43;;;2.80;;
17658;SDS011;8948;51.534;8.262;2023-02-28T00:12:59;3.40;;;2.10;;
17658;SDS011;8948;51.534;8.262;2023-02-28T00:18:01;4.83;;;3.00;;
17658;SDS011;8948;51.534;8.262;2023-02-28T00:23:03;6.87;;;2.70;;
17658;SDS011;8948;51.534;8.262;2023-02-28T00:28:03;5.87;;;2.97;;
17658;SDS011;8948;51.534;8.262;2023-02-28T00:33:04;3.10;;;2.33;;
17658;SDS011;8948;51.534;8.262;2023-02-28T00:38:04;4.60;;;2.40;;
17658;SDS011;8948;51.534;8.262;2023-02-28T00:43:05;7.07;;;2.10;;
17658;SDS011;8948;51.534;8.262;2023-02-28T00:48:06;3.00;;;1.77;;
17658;SDS011;8948;51.534;8.262;2023-02-28T00:53:06;5.87;;;2.87;;
17658;SDS011;8948;51.534;8.262;2023-02-28T00:58:07;3.07;;;1.93;;
17658;SDS011;8948;51.534;8.262;2023-02-28T01:03:07;5.20;;;2.00;;
17658;SDS011;8948;51.534;8.262;2023-02-28T01:08:08;4.13;;;2.20;;
17658;SDS011;8948;51.534;8.262;2023-02-28T01:13:08;4.10;;;1.90;;
17658;SDS011;8948;51.534;8.262;2023-02-28T01:23:20;3.73;;;2.03;;
17658;SDS011;8948;51.534;8.262;2023-02-28T01:28:23;2.07;;;1.50;;
17658;SDS011;8948;51.534;8.262;2023-02-28T01:33:23;4.13;;;1.80;;
17658;SDS011;8948;51.534;8.262;2023-02-28T01:38:25;4.30;;;2.33;;
17658;SDS011;8948;51.534;8.262;2023-02-28T01:43:27;3.13;;;1.93;;
17658;SDS011;8948;51.534;8.262;2023-02-28T01:48:30;4.83;;;2.20;;
17658;SDS011;8948;51.534;8.262;2023-02-28T01:53:34;4.13;;;2.43;;
17658;SDS011;8948;51.534;8.262;2023-02-28T01:58:38;2.73;;;1.90;;
17658;SDS011;8948;51.534;8.262;2023-02-28T02:03:39;2.57;;;1.93;;
17658;SDS011;8948;51.534;8.262;2023-02-28T02:08:39;3.97;;;2.10;;
17658;SDS011;8948;51.534;8.262;2023-02-28T02:19:20;2.43;;;2.10;;
17658;SDS011;8948;51.534;8.262;2023-02-28T02:39:54;2.17;;;1.97;;
17658;SDS011;8948;51.534;8.262;2023-02-28T02:45:18;2.47;;;1.97;;
17658;SDS011;8948;51.534;8.262;2023-02-28T02:50:41;5.53;;;2.00;;
17658;SDS011;8948;51.534;8.262;2023-02-28T02:55:44;2.03;;;1.70;;
17658;SDS011;8948;51.534;8.262;2023-02-28T03:00:49;2.83;;;2.03;;
17658;SDS011;8948;51.534;8.262;2023-02-28T03:05:58;4.70;;;2.20;;
17658;SDS011;8948;51.534;8.262;2023-02-28T03:11:01;3.77;;;1.80;;
17658;SDS011;8948;51.534;8.262;2023-02-28T03:21:32;4.50;;;1.90;;
17658;SDS011;8948;51.534;8.262;2023-02-28T03:26:43;2.90;;;2.00;;
17658;SDS011;8948;51.534;8.262;2023-02-28T03:31:50;2.13;;;1.90;;
17658;SDS011;8948;51.534;8.262;2023-02-28T03:37:13;3.20;;;1.90;;
17658;SDS011;8948;51.534;8.262;2023-02-28T03:42:20;6.80;;;1.93;;
17658;SDS011;8948;51.534;8.262;2023-02-28T03:47:25;2.40;;;2.10;;
17658;SDS011;8948;51.534;8.262;2023-02-28T03:52:33;2.03;;;1.87;;
17658;SDS011;8948;51.534;8.262;2023-02-28T03:57:40;1.80;;;1.70;;
17658;SDS011;8948;51.534;8.262;2023-02-28T04:02:47;2.90;;;2.07;;
17658;SDS011;8948;51.534;8.262;2023-02-28T04:07:52;2.60;;;2.30;;
17658;SDS011;8948;51.534;8.262;2023-02-28T04:12:53;5.60;;;2.60;;
17658;SDS011;8948;51.534;8.262;2023-02-28T04:17:54;2.60;;;2.10;;
17658;SDS011;8948;51.534;8.262;2023-02-28T04:22:55;2.40;;;1.97;;
17658;SDS011;8948;51.534;8.262;2023-02-28T04:27:55;3.00;;;2.07;;
17658;SDS011;8948;51.534;8.262;2023-02-28T04:32:56;2.30;;;1.90;;
17658;SDS011;8948;51.534;8.262;2023-02-28T04:37:56;3.77;;;2.20;;
17658;SDS011;8948;51.534;8.262;2023-02-28T04:42:57;2.40;;;2.00;;
17658;SDS011;8948;51.534;8.262;2023-02-28T04:47:57;4.03;;;2.10;;
17658;SDS011;8948;51.534;8.262;2023-02-28T04:52:58;2.87;;;2.30;;
17658;SDS011;8948;51.534;8.262;2023-02-28T04:57:59;2.53;;;2.10;;
17658;SDS011;8948;51.534;8.262;2023-02-28T05:02:59;2.30;;;2.00;;
17658;SDS011;8948;51.534;8.262;2023-02-28T05:08:00;2.73;;;2.30;;
17658;SDS011;8948;51.534;8.262;2023-02-28T05:13:00;3.30;;;2.10;;
17658;SDS011;8948;51.534;8.262;2023-02-28T05:18:01;3.73;;;2.23;;
17658;SDS011;8948;51.534;8.262;2023-02-28T05:23:01;2.33;;;2.13;;
17658;SDS011;8948;51.534;8.262;2023-02-28T05:28:03;2.40;;;2.20;;
17658;SDS011;8948;51.534;8.262;2023-02-28T05:33:04;3.00;;;2.50;;
17658;SDS011;8948;51.534;8.262;2023-02-28T05:38:04;3.33;;;2.60;;
17658;SDS011;8948;51.534;8.262;2023-02-28T05:43:05;4.47;;;2.67;;
17658;SDS011;8948;51.534;8.262;2023-02-28T05:48:06;4.27;;;2.33;;
17658;SDS011;8948;51.534;8.262;2023-02-28T05:53:07;7.50;;;2.90;;
17658;SDS011;8948;51.534;8.262;2023-02-28T05:58:08;8.30;;;2.53;;
17658;SDS011;8948;51.534;8.262;2023-02-28T06:03:09;3.47;;;2.70;;
17658;SDS011;8948;51.534;8.262;2023-02-28T06:08:09;6.77;;;2.80;;
17658;SDS011;8948;51.534;8.262;2023-02-28T06:13:10;3.00;;;2.40;;
17658;SDS011;8948;51.534;8.262;2023-02-28T06:18:12;3.13;;;2.30;;
17658;SDS011;8948;51.534;8.262;2023-02-28T06:23:13;3.47;;;2.53;;
17658;SDS011;8948;51.534;8.262;2023-02-28T06:28:13;4.57;;;2.50;;
17658;SDS011;8948;51.534;8.262;2023-02-28T06:33:14;4.23;;;3.03;;
17658;SDS011;8948;51.534;8.262;2023-02-28T06:38:14;6.40;;;4.10;;
17658;SDS011;8948;51.534;8.262;2023-02-28T06:43:15;4.63;;;3.17;;
17658;SDS011;8948;51.534;8.262;2023-02-28T06:48:16;4.50;;;2.63;;
17658;SDS011;8948;51.534;8.262;2023-02-28T06:53:17;5.87;;;3.17;;
17658;SDS011;8948;51.534;8.262;2023-02-28T06:58:18;5.80;;;2.60;;
17658;SDS011;8948;51.534;8.262;2023-02-28T07:03:19;3.90;;;2.77;;
17658;SDS011;8948;51.534;8.262;2023-02-28T07:08:19;4.93;;;2.60;;
17658;SDS011;8948;51.534;8.262;2023-02-28T07:13:20;3.73;;;2.40;;
17658;SDS011;8948;51.534;8.262;2023-02-28T07:18:21;4.30;;;2.83;;
17658;SDS011;8948;51.534;8.262;2023-02-28T07:23:22;4.07;;;2.80;;
17658;SDS011;8948;51.534;8.262;2023-02-28T07:28:23;7.33;;;2.90;;
17658;SDS011;8948;51.534;8.262;2023-02-28T07:33:24;6.07;;;2.70;;
17658;SDS011;8948;51.534;8.262;2023-02-28T07:38:24;3.63;;;2.50;;
17658;SDS011;8948;51.534;8.262;2023-02-28T07:43:25;4.30;;;2.50;;
17658;SDS011;8948;51.534;8.262;2023-02-28T07:48:26;3.63;;;2.63;;
17658;SDS011;8948;51.534;8.262;2023-02-28T07:53:26;3.73;;;2.60;;
17658;SDS011;8948;51.534;8.262;2023-02-28T07:58:28;4.70;;;3.37;;
17658;SDS011;8948;51.534;8.262;2023-02-28T08:03:29;4.27;;;2.63;;
17658;SDS011;8948;51.534;8.262;2023-02-28T08:08:29;9.43;;;2.97;;
17658;SDS011;8948;51.534;8.262;2023-02-28T08:13:31;7.97;;;2.80;;
17658;SDS011;8948;51.534;8.262;2023-02-28T08:18:31;4.73;;;2.93;;
17658;SDS011;8948;51.534;8.262;2023-02-28T08:23:32;6.03;;;3.57;;
17658;SDS011;8948;51.534;8.262;2023-02-28T08:28:33;6.73;;;3.73;;
17658;SDS011;8948;51.534;8.262;2023-02-28T08:33:34;10.37;;;4.67;;
17658;SDS011;8948;51.534;8.262;2023-02-28T08:38:35;12.17;;;3.70;;
17658;SDS011;8948;51.534;8.262;2023-02-28T08:43:37;6.27;;;3.40;;
17658;SDS011;8948;51.534;8.262;2023-02-28T08:48:38;9.70;;;3.97;;
17658;SDS011;8948;51.534;8.262;2023-02-28T08:53:39;9.33;;;3.70;;
17658;SDS011;8948;51.534;8.262;2023-02-28T08:58:40;9.23;;;3.70;;
17658;SDS011;8948;51.534;8.262;2023-02-28T09:03:41;7.00;;;2.57;;
17658;SDS011;8948;51.534;8.262;2023-02-28T09:08:42;7.57;;;3.17;;
17658;SDS011;8948;51.534;8.262;2023-02-28T09:13:43;5.83;;;2.40;;
17658;SDS011;8948;51.534;8.262;2023-02-28T09:18:44;3.80;;;2.40;;
17658;SDS011;8948;51.534;8.262;2023-02-28T09:23:45;4.43;;;2.40;;
17658;SDS011;8948;51.534;8.262;2023-02-28T09:28:47;4.30;;;2.40;;
17658;SDS011;8948;51.534;8.262;2023-02-28T09:33:49;4.90;;;2.43;;
17658;SDS011;8948;51.534;8.262;2023-02-28T09:38:51;2.90;;;2.00;;
17658;SDS011;8948;51.534;8.262;2023-02-28T09:43:54;7.03;;;2.20;;
17658;SDS011;8948;51.534;8.262;2023-02-28T09:48:57;3.63;;;2.13;;
17658;SDS011;8948;51.534;8.262;2023-02-28T09:54:01;5.43;;;1.93;;
17658;SDS011;8948;51.534;8.262;2023-02-28T09:59:10;3.73;;;2.90;;
17658;SDS011;8948;51.534;8.262;2023-02-28T10:04:36;5.20;;;2.47;;
17658;SDS011;8948;51.534;8.262;2023-02-28T10:10:01;3.60;;;2.20;;
17658;SDS011;8948;51.534;8.262;2023-02-28T10:15:07;2.97;;;1.73;;
17658;SDS011;8948;51.534;8.262;2023-02-28T10:20:14;2.20;;;1.60;;
17658;SDS011;8948;51.534;8.262;2023-02-28T10:25:27;4.53;;;1.87;;
17658;SDS011;8948;51.534;8.262;2023-02-28T10:30:29;3.13;;;2.03;;
17658;SDS011;8948;51.534;8.262;2023-02-28T10:35:29;2.07;;;1.80;;
17658;SDS011;8948;51.534;8.262;2023-02-28T10:40:32;2.93;;;1.80;;
17658;SDS011;8948;51.534;8.262;2023-02-28T10:45:35;3.23;;;2.07;;
17658;SDS011;8948;51.534;8.262;2023-02-28T10:56:32;3.70;;;2.00;;
17658;SDS011;8948;51.534;8.262;2023-02-28T11:01:12;4.13;;;1.97;;
17658;SDS011;8948;51.534;8.262;2023-02-28T11:06:16;4.23;;;2.07;;
17658;SDS011;8948;51.534;8.262;2023-02-28T11:11:22;4.13;;;2.37;;
17658;SDS011;8948;51.534;8.262;2023-02-28T11:16:35;3.43;;;2.10;;
17658;SDS011;8948;51.534;8.262;2023-02-28T11:21:37;3.37;;;2.17;;
17658;SDS011;8948;51.534;8.262;2023-02-28T11:26:41;5.53;;;2.43;;
17658;SDS011;8948;51.534;8.262;2023-02-28T11:31:43;3.07;;;2.10;;
17658;SDS011;8948;51.534;8.262;2023-02-28T11:36:45;4.03;;;2.47;;
17658;SDS011;8948;51.534;8.262;2023-02-28T11:41:59;4.87;;;2.57;;
17658;SDS011;8948;51.534;8.262;2023-02-28T11:47:17;3.50;;;2.43;;
17658;SDS011;8948;51.534;8.262;2023-02-28T11:52:36;3.90;;;2.00;;
17658;SDS011;8948;51.534;8.262;2023-02-28T11:57:53;4.57;;;1.97;;
17658;SDS011;8948;51.534;8.262;2023-02-28T12:03:22;5.70;;;2.20;;
17658;SDS011;8948;51.534;8.262;2023-02-28T12:30:05;5.30;;;2.80;;
17658;SDS011;8948;51.534;8.262;2023-02-28T12:35:28;3.77;;;2.77;;
17658;SDS011;8948;51.534;8.262;2023-02-28T12:41:21;3.70;;;2.53;;
17658;SDS011;8948;51.534;8.262;2023-02-28T12:46:07;4.23;;;2.83;;
17658;SDS011;8948;51.534;8.262;2023-02-28T12:51:12;4.37;;;2.53;;
17658;SDS011;8948;51.534;8.262;2023-02-28T12:56:29;5.23;;;3.00;;
17658;SDS011;8948;51.534;8.262;2023-02-28T13:01:42;4.93;;;2.67;;
17658;SDS011;8948;51.534;8.262;2023-02-28T13:07:20;3.63;;;2.63;;
17658;SDS011;8948;51.534;8.262;2023-02-28T13:12:47;3.63;;;2.30;;
17658;SDS011;8948;51.534;8.262;2023-02-28T13:17:54;5.07;;;2.77;;
17658;SDS011;8948;51.534;8.262;2023-02-28T13:22:56;3.40;;;2.43;;
17658;SDS011;8948;51.534;8.262;2023-02-28T13:28:02;5.43;;;2.90;;
17658;SDS011;8948;51.534;8.262;2023-02-28T13:38:34;3.30;;;2.40;;
17658;SDS011;8948;51.534;8.262;2023-02-28T14:00:06;6.50;;;3.00;;
17658;SDS011;8948;51.534;8.262;2023-02-28T14:05:18;4.77;;;3.03;;
17658;SDS011;8948;51.534;8.262;2023-02-28T14:10:30;3.70;;;2.67;;
17658;SDS011;8948;51.534;8.262;2023-02-28T14:20:33;3.43;;;2.80;;
17658;SDS011;8948;51.534;8.262;2023-02-28T14:25:37;6.33;;;3.00;;
17658;SDS011;8948;51.534;8.262;2023-02-28T14:36:00;3.47;;;2.57;;
17658;SDS011;8948;51.534;8.262;2023-02-28T14:41:16;4.20;;;3.13;;
17658;SDS011;8948;51.534;8.262;2023-02-28T14:46:42;5.17;;;3.20;;
17658;SDS011;8948;51.534;8.262;2023-02-28T14:51:44;7.07;;;2.90;;
17658;SDS011;8948;51.534;8.262;2023-02-28T14:56:48;4.20;;;2.73;;
17658;SDS011;8948;51.534;8.262;2023-02-28T15:01:49;4.33;;;3.23;;
17658;SDS011;8948;51.534;8.262;2023-02-28T15:07:09;5.90;;;3.20;;
17658;SDS011;8948;51.534;8.262;2023-02-28T15:12:13;4.50;;;3.03;;
17658;SDS011;8948;51.534;8.262;2023-02-28T15:17:17;3.63;;;2.93;;
17658;SDS011;8948;51.534;8.262;2023-02-28T15:22:31;4.70;;;3.00;;
17658;SDS011;8948;51.534;8.262;2023-02-28T15:27:38;5.97;;;3.20;;
17658;SDS011;8948;51.534;8.262;2023-02-28T15:32:44;4.90;;;2.83;;
17658;SDS011;8948;51.534;8.262;2023-02-28T15:38:23;3.53;;;2.70;;
17658;SDS011;8948;51.534;8.262;2023-02-28T15:48:35;6.10;;;3.27;;
17658;SDS011;8948;51.534;8.262;2023-02-28T15:53:57;7.97;;;2.87;;
17658;SDS011;8948;51.534;8.262;2023-02-28T15:59:02;6.43;;;3.10;;
17658;SDS011;8948;51.534;8.262;2023-02-28T16:04:16;7.30;;;3.03;;
17658;SDS011;8948;51.534;8.262;2023-02-28T16:09:18;5.90;;;3.43;;
17658;SDS011;8948;51.534;8.262;2023-02-28T16:14:20;7.20;;;3.27;;
17658;SDS011;8948;51.534;8.262;2023-02-28T16:19:23;5.23;;;3.37;;
17658;SDS011;8948;51.534;8.262;2023-02-28T16:24:23;6.27;;;3.03;;
17658;SDS011;8948;51.534;8.262;2023-02-28T16:29:24;5.43;;;2.97;;
17658;SDS011;8948;51.534;8.262;2023-02-28T16:34:31;11.10;;;3.70;;
17658;SDS011;8948;51.534;8.262;2023-02-28T16:39:31;5.80;;;2.90;;
17658;SDS011;8948;51.534;8.262;2023-02-28T16:44:33;7.43;;;4.07;;
17658;SDS011;8948;51.534;8.262;2023-02-28T16:49:34;6.00;;;3.13;;
17658;SDS011;8948;51.534;8.262;2023-02-28T16:54:35;5.00;;;3.00;;
17658;SDS011;8948;51.534;8.262;2023-02-28T16:59:36;5.73;;;3.20;;
17658;SDS011;8948;51.534;8.262;2023-02-28T17:04:36;5.47;;;2.87;;
17658;SDS011;8948;51.534;8.262;2023-02-28T17:09:37;6.40;;;3.80;;
17658;SDS011;8948;51.534;8.262;2023-02-28T17:14:37;5.93;;;3.17;;
17658;SDS011;8948;51.534;8.262;2023-02-28T17:19:38;5.57;;;3.37;;
17658;SDS011;8948;51.534;8.262;2023-02-28T17:24:42;6.63;;;3.37;;
17658;SDS011;8948;51.534;8.262;2023-02-28T17:29:45;6.30;;;4.03;;
17658;SDS011;8948;51.534;8.262;2023-02-28T17:34:47;6.60;;;3.53;;
17658;SDS011;8948;51.534;8.262;2023-02-28T17:39:47;8.27;;;4.00;;
17658;SDS011;8948;51.534;8.262;2023-02-28T17:44:48;7.70;;;4.83;;
17658;SDS011;8948;51.534;8.262;2023-02-28T17:49:48;19.73;;;9.07;;
17658;SDS011;8948;51.534;8.262;2023-02-28T17:54:49;16.87;;;7.80;;
17658;SDS011;8948;51.534;8.262;2023-02-28T17:59:49;7.33;;;4.70;;
17658;SDS011;8948;51.534;8.262;2023-02-28T18:04:50;12.80;;;4.70;;
17658;SDS011;8948;51.534;8.262;2023-02-28T18:09:50;7.97;;;4.47;;
17658;SDS011;8948;51.534;8.262;2023-02-28T18:14:51;18.73;;;10.13;;
17658;SDS011;8948;51.534;8.262;2023-02-28T18:19:51;18.27;;;9.90;;
17658;SDS011;8948;51.534;8.262;2023-02-28T18:24:52;12.80;;;7.60;;
17658;SDS011;8948;51.534;8.262;2023-02-28T18:29:52;9.17;;;5.27;;
17658;SDS011;8948;51.534;8.262;2023-02-28T18:34:53;9.00;;;5.13;;
17658;SDS011;8948;51.534;8.262;2023-02-28T18:39:53;8.97;;;6.03;;
17658;SDS011;8948;51.534;8.262;2023-02-28T18:44:54;8.77;;;5.00;;
17658;SDS011;8948;51.534;8.262;2023-02-28T18:49:54;9.90;;;4.30;;
17658;SDS011;8948;51.534;8.262;2023-02-28T18:54:55;8.37;;;4.53;;
17658;SDS011;8948;51.534;8.262;2023-02-28T18:59:55;9.20;;;5.20;;
17658;SDS011;8948;51.534;8.262;2023-02-28T19:04:56;10.67;;;4.70;;
17658;SDS011;8948;51.534;8.262;2023-02-28T19:09:57;7.73;;;4.17;;
17658;SDS011;8948;51.534;8.262;2023-02-28T19:14:57;9.60;;;4.43;;
17658;SDS011;8948;51.534;8.262;2023-02-28T19:19:58;7.13;;;4.10;;
17658;SDS011;8948;51.534;8.262;2023-02-28T19:24:58;9.33;;;4.33;;
17658;SDS011;8948;51.534;8.262;2023-02-28T19:29:59;7.97;;;4.47;;
17658;SDS011;8948;51.534;8.262;2023-02-28T19:34:59;9.90;;;4.53;;
17658;SDS011;8948;51.534;8.262;2023-02-28T19:40:01;7.17;;;4.37;;
17658;SDS011;8948;51.534;8.262;2023-02-28T19:45:02;6.77;;;4.10;;
17658;SDS011;8948;51.534;8.262;2023-02-28T19:50:04;8.63;;;4.80;;
17658;SDS011;8948;51.534;8.262;2023-02-28T19:55:05;5.90;;;3.87;;
17658;SDS011;8948;51.534;8.262;2023-02-28T20:00:06;7.53;;;4.37;;
17658;SDS011;8948;51.534;8.262;2023-02-28T20:05:08;7.77;;;4.40;;
17658;SDS011;8948;51.534;8.262;2023-02-28T20:10:09;12.40;;;5.80;;
17658;SDS011;8948;51.534;8.262;2023-02-28T20:15:10;11.03;;;4.30;;
17658;SDS011;8948;51.534;8.262;2023-02-28T20:20:10;6.73;;;4.47;;
17658;SDS011;8948;51.534;8.262;2023-02-28T20:25:11;7.70;;;4.50;;
17658;SDS011;8948;51.534;8.262;2023-02-28T20:30:12;6.07;;;4.30;;
17658;SDS011;8948;51.534;8.262;2023-02-28T20:35:13;9.57;;;4.70;;
17658;SDS011;8948;51.534;8.262;2023-02-28T20:40:13;6.80;;;4.40;;
17658;SDS011;8948;51.534;8.262;2023-02-28T20:45:14;6.23;;;4.40;;
17658;SDS011;8948;51.534;8.262;2023-02-28T20:50:15;8.93;;;5.33;;
17658;SDS011;8948;51.534;8.262;2023-02-28T20:55:16;6.57;;;4.07;;
17658;SDS011;8948;51.534;8.262;2023-02-28T21:00:16;9.30;;;4.50;;
17658;SDS011;8948;51.534;8.262;2023-02-28T21:05:18;10.30;;;5.60;;
17658;SDS011;8948;51.534;8.262;2023-02-28T21:10:18;12.33;;;7.03;;
17658;SDS011;8948;51.534;8.262;2023-02-28T21:15:19;10.30;;;5.53;;
17658;SDS011;8948;51.534;8.262;2023-02-28T21:20:21;8.03;;;4.87;;
17658;SDS011;8948;51.534;8.262;2023-02-28T21:25:22;9.30;;;5.27;;
17658;SDS011;8948;51.534;8.262;2023-02-28T21:30:22;11.47;;;6.10;;
17658;SDS011;8948;51.534;8.262;2023-02-28T21:35:23;12.13;;;6.90;;
17658;SDS011;8948;51.534;8.262;2023-02-28T21:40:24;14.33;;;8.43;;
17658;SDS011;8948;51.534;8.262;2023-02-28T21:45:24;17.37;;;8.60;;
17658;SDS011;8948;51.534;8.262;2023-02-28T21:50:26;15.60;;;6.43;;
17658;SDS011;8948;51.534;8.262;2023-02-28T21:55:26;10.40;;;6.13;;
17658;SDS011;8948;51.534;8.262;2023-02-28T22:00:27;19.37;;;8.20;;
17658;SDS011;8948;51.534;8.262;2023-02-28T22:05:28;11.57;;;6.67;;
17658;SDS011;8948;51.534;8.262;2023-02-28T22:10:28;15.60;;;7.43;;
17658;SDS011;8948;51.534;8.262;2023-02-28T22:15:29;11.30;;;6.00;;
17658;SDS011;8948;51.534;8.262;2023-02-28T22:20:30;12.50;;;6.70;;
17658;SDS011;8948;51.534;8.262;2023-02-28T22:25:35;11.77;;;6.70;;
17658;SDS011;8948;51.534;8.262;2023-02-28T22:30:36;8.63;;;5.57;;
17658;SDS011;8948;51.534;8.262;2023-02-28T22:35:37;9.20;;;5.60;;
17658;SDS011;8948;51.534;8.262;2023-02-28T22:40:37;11.30;;;5.60;;
17658;SDS011;8948;51.534;8.262;2023-02-28T22:45:38;8.87;;;5.70;;
17658;SDS011;8948;51.534;8.262;2023-02-28T22:50:39;9.30;;;6.20;;
17658;SDS011;8948;51.534;8.262;2023-02-28T22:55:40;18.63;;;7.00;;
17658;SDS011;8948;51.534;8.262;2023-02-28T23:00:40;11.93;;;7.23;;
17658;SDS011;8948;51.534;8.262;2023-02-28T23:05:41;11.67;;;6.87;;
17658;SDS011;8948;51.534;8.262;2023-02-28T23:10:42;13.03;;;6.97;;
17658;SDS011;8948;51.534;8.262;2023-02-28T23:15:42;12.67;;;6.30;;
17658;SDS011;8948;51.534;8.262;2023-02-28T23:20:43;11.03;;;6.30;;
17658;SDS011;8948;51.534;8.262;2023-02-28T23:25:44;13.03;;;6.93;;
17658;SDS011;8948;51.534;8.262;2023-02-28T23:30:44;13.20;;;6.47;;
17658;SDS011;8948;51.534;8.262;2023-02-28T23:35:45;11.30;;;5.90;;
17658;SDS011;8948;51.534;8.262;2023-02-28T23:40:46;9.37;;;6.00;;
17658;SDS011;8948;51.534;8.262;2023-02-28T23:45:53;11.10;;;6.90;;
17658;SDS011;8948;51.534;8.262;2023-02-28T23:50:59;10.47;;;6.40;;
17658;SDS011;8948;51.534;8.262;2023-02-28T23:56:08;9.40;;;5.53;;
